Time;durP1;ratioP1;P1;durP2;ratioP2;P2;SDS_P1;SDS_P2;PMS_P1;PMS_P2;Temp;Humidity;BMP_temperature;BMP_pressure;BME280_temperature;BME280_humidity;BME280_pressure;Samples;Min_cycle;Max_cycle;Signal;HPM_P1;HPM_P2
2022/01/10 00:00:18;;;;;;;0.30;0.10;;;1.60;99.90;;;;;;5083164;28;20446;-84
2022/01/10 00:02:48;;;;;;;0.40;0.20;;;1.70;99.90;;;;;;5083472;28;20865;-85
2022/01/10 00:05:15;;;;;;;0.30;0.17;;;1.60;99.90;;;;;;5068524;28;20456;-85
2022/01/10 00:07:42;;;;;;;0.30;0.17;;;1.60;99.90;;;;;;5070162;28;20471;-88
2022/01/10 00:10:10;;;;;;;0.30;0.10;;;1.60;99.90;;;;;;5062688;28;20206;-87
2022/01/10 00:12:37;;;;;;;0.30;0.10;;;1.60;99.90;;;;;;5063156;28;20530;-86
2022/01/10 00:15:08;;;;;;;0.30;0.10;;;1.60;99.90;;;;;;5066017;28;20451;-86
2022/01/10 00:17:38;;;;;;;0.30;0.10;;;1.60;99.90;;;;;;5056811;28;20486;-87
2022/01/10 00:20:07;;;;;;;0.30;0.10;;;1.40;99.90;;;;;;5062007;28;20471;-85
2022/01/10 00:22:36;;;;;;;0.30;0.10;;;1.30;99.90;;;;;;5056051;28;20309;-88
2022/01/10 00:25:04;;;;;;;0.30;0.10;;;1.20;99.90;;;;;;5059445;28;20997;-87
2022/01/10 00:27:32;;;;;;;0.30;0.10;;;1.20;99.90;;;;;;5062176;28;20994;-86
2022/01/10 00:29:59;;;;;;;0.30;0.10;;;1.20;99.90;;;;;;5058574;28;20191;-87
2022/01/10 00:32:28;;;;;;;0.30;0.10;;;1.20;99.90;;;;;;5055697;28;20198;-87
2022/01/10 00:34:55;;;;;;;0.30;0.20;;;1.20;99.90;;;;;;5053707;28;20237;-86
2022/01/10 00:37:22;;;;;;;0.40;0.30;;;1.20;99.90;;;;;;5054460;28;20228;-87
2022/01/10 00:39:49;;;;;;;0.30;0.10;;;1.20;99.90;;;;;;5057042;28;20650;-87
2022/01/10 00:42:17;;;;;;;0.30;0.10;;;1.20;99.90;;;;;;5070145;28;20192;-89
2022/01/10 00:44:50;;;;;;;0.30;0.10;;;1.20;99.90;;;;;;5065920;28;20224;-91
2022/01/10 00:47:17;;;;;;;0.30;0.10;;;1.30;99.90;;;;;;5070298;28;20208;-92
2022/01/10 00:49:46;;;;;;;0.30;0.10;;;1.40;99.90;;;;;;5059483;28;20208;-89
2022/01/10 00:52:14;;;;;;;0.30;0.10;;;1.30;99.90;;;;;;5069913;28;20203;-86
2022/01/10 00:54:41;;;;;;;0.30;0.10;;;1.30;99.90;;;;;;5071289;28;20197;-86
2022/01/10 00:57:08;;;;;;;0.30;0.10;;;1.30;99.90;;;;;;5065210;28;20580;-86
2022/01/10 00:59:35;;;;;;;0.30;0.10;;;1.30;99.90;;;;;;5069500;28;20447;-91
2022/01/10 01:02:03;;;;;;;0.30;0.20;;;1.20;99.90;;;;;;5064563;28;20498;-86
2022/01/10 01:04:30;;;;;;;0.30;0.10;;;1.20;99.90;;;;;;5064935;28;20201;-86
2022/01/10 01:06:58;;;;;;;0.30;0.10;;;1.20;99.90;;;;;;5066046;28;20202;-87
2022/01/10 01:09:29;;;;;;;0.30;0.10;;;1.20;99.90;;;;;;5066068;28;20461;-85
2022/01/10 01:12:18;;;;;;;0.30;0.10;;;1.20;99.90;;;;;;5069521;28;20208;-86
2022/01/10 01:14:55;;;;;;;0.30;0.10;;;1.20;99.90;;;;;;5068807;28;20198;-89
2022/01/10 01:17:56;;;;;;;0.30;0.10;;;1.20;99.90;;;;;;5066874;28;20270;-86
2022/01/10 01:20:44;;;;;;;0.30;0.10;;;1.10;99.90;;;;;;5065855;28;20670;-85
2022/01/10 01:26:01;;;;;;;0.30;0.10;;;1.10;99.90;;;;;;5069819;28;20315;-86
2022/01/10 01:28:29;;;;;;;0.30;0.10;;;1.10;99.90;;;;;;5087062;28;20209;-86
2022/01/10 01:30:56;;;;;;;0.30;0.10;;;1.10;99.90;;;;;;5084116;28;20258;-86
2022/01/10 01:33:24;;;;;;;0.30;0.10;;;1.10;99.90;;;;;;5083060;28;20477;-84
2022/01/10 01:35:52;;;;;;;0.30;0.10;;;1.00;99.90;;;;;;5075563;28;20233;-86
2022/01/10 01:38:21;;;;;;;0.30;0.10;;;0.90;99.90;;;;;;5064085;28;20474;-87
2022/01/10 01:40:55;;;;;;;0.30;0.10;;;0.90;99.90;;;;;;5066035;28;20450;-86
2022/01/10 01:43:22;;;;;;;0.30;0.20;;;0.90;99.90;;;;;;5061779;28;20281;-88
2022/01/10 01:45:50;;;;;;;0.30;0.10;;;0.90;99.90;;;;;;5064791;28;20261;-86
2022/01/10 01:48:18;;;;;;;0.30;0.10;;;0.90;99.90;;;;;;5068181;28;20200;-85
2022/01/10 01:50:45;;;;;;;0.63;0.63;;;0.80;99.90;;;;;;5060327;28;20490;-86
2022/01/10 01:53:12;;;;;;;0.30;0.10;;;0.80;99.90;;;;;;5069484;28;20213;-89
2022/01/10 01:55:41;;;;;;;0.30;0.10;;;0.70;99.90;;;;;;5067019;28;20292;-90
2022/01/10 01:58:08;;;;;;;0.30;0.10;;;0.70;99.90;;;;;;5068222;28;20351;-86
2022/01/10 02:00:35;;;;;;;0.30;0.10;;;0.70;99.90;;;;;;5067775;28;20471;-87
2022/01/10 02:03:02;;;;;;;0.73;0.20;;;0.70;99.90;;;;;;5074969;28;20196;-87
2022/01/10 02:05:29;;;;;;;0.30;0.20;;;0.70;99.90;;;;;;5078498;28;20197;-85
2022/01/10 02:07:57;;;;;;;0.30;0.10;;;0.60;99.90;;;;;;5077762;28;20535;-86
2022/01/10 02:10:23;;;;;;;0.30;0.20;;;0.70;99.90;;;;;;5072101;28;20196;-85
2022/01/10 02:12:52;;;;;;;0.30;0.10;;;0.60;99.90;;;;;;5079433;28;20200;-85
2022/01/10 02:15:32;;;;;;;0.30;0.10;;;0.70;99.90;;;;;;5076814;28;20196;-86
2022/01/10 02:18:00;;;;;;;0.30;0.10;;;0.70;99.90;;;;;;5071423;28;20227;-85
2022/01/10 02:20:30;;;;;;;0.30;0.10;;;0.60;99.90;;;;;;5063686;28;20287;-86
2022/01/10 02:22:57;;;;;;;0.30;0.10;;;0.50;99.90;;;;;;5061807;28;20197;-86
2022/01/10 02:25:25;;;;;;;0.30;0.20;;;0.40;99.90;;;;;;5065421;28;20313;-87
2022/01/10 02:27:52;;;;;;;0.30;0.10;;;0.40;99.90;;;;;;5064186;28;20196;-90
2022/01/10 02:30:19;;;;;;;0.30;0.10;;;0.30;99.90;;;;;;5056907;28;20243;-88
2022/01/10 02:32:47;;;;;;;0.30;0.10;;;0.30;99.90;;;;;;5059590;28;20250;-87
2022/01/10 02:35:22;;;;;;;0.30;0.17;;;0.30;99.90;;;;;;5063501;28;20200;-87
2022/01/10 02:37:52;;;;;;;0.30;0.10;;;0.30;99.90;;;;;;5059275;28;20239;-86
2022/01/10 02:40:21;;;;;;;0.30;0.20;;;0.40;99.90;;;;;;5065080;28;20287;-87
2022/01/10 02:42:48;;;;;;;0.30;0.10;;;0.50;99.90;;;;;;5058018;28;20232;-86
2022/01/10 02:45:16;;;;;;;0.30;0.10;;;0.60;99.90;;;;;;5066698;28;20779;-89
2022/01/10 02:47:43;;;;;;;0.30;0.10;;;0.70;99.90;;;;;;5065319;28;20207;-85
2022/01/10 02:50:11;;;;;;;0.30;0.10;;;0.70;99.90;;;;;;5066141;28;20576;-85
2022/01/10 02:52:39;;;;;;;0.30;0.10;;;0.70;99.90;;;;;;5062094;28;20463;-86
2022/01/10 02:55:10;;;;;;;0.30;0.10;;;0.70;99.90;;;;;;5067437;28;20201;-86
2022/01/10 02:57:37;;;;;;;0.30;0.10;;;0.80;99.90;;;;;;5068343;28;20509;-86
2022/01/10 03:00:07;;;;;;;0.30;0.10;;;0.80;99.90;;;;;;5069277;28;20205;-88
2022/01/10 03:02:35;;;;;;;0.30;0.10;;;0.80;99.90;;;;;;5076100;28;20193;-86
2022/01/10 03:05:02;;;;;;;0.30;0.10;;;0.80;99.90;;;;;;5074918;28;20456;-85
2022/01/10 03:07:29;;;;;;;0.30;0.20;;;0.80;99.90;;;;;;5073022;28;20451;-86
2022/01/10 03:09:56;;;;;;;0.30;0.10;;;0.70;99.90;;;;;;5070318;28;20501;-86
2022/01/10 03:12:25;;;;;;;0.30;0.10;;;0.80;99.90;;;;;;5068106;28;20925;-87
2022/01/10 03:14:52;;;;;;;0.30;0.10;;;0.70;99.90;;;;;;5071557;28;20209;-89
2022/01/10 03:17:19;;;;;;;0.30;0.20;;;0.80;99.90;;;;;;5067531;28;21012;-87
2022/01/10 03:19:46;;;;;;;0.30;0.10;;;0.80;99.90;;;;;;5067447;28;20204;-87
2022/01/10 03:22:13;;;;;;;0.30;0.10;;;0.80;99.90;;;;;;5069415;28;20262;-88
2022/01/10 03:24:40;;;;;;;0.30;0.15;;;0.80;99.90;;;;;;5070615;28;20599;-85
2022/01/10 03:27:07;;;;;;;0.30;0.10;;;0.70;99.90;;;;;;5068617;28;20196;-87
2022/01/10 03:29:36;;;;;;;0.30;0.10;;;0.70;99.90;;;;;;5068226;28;20570;-88
2022/01/10 03:32:05;;;;;;;0.30;0.10;;;0.70;99.90;;;;;;5072507;28;20198;-84
2022/01/10 03:34:32;;;;;;;0.30;0.20;;;0.70;99.90;;;;;;5065078;28;20215;-88
2022/01/10 03:36:59;;;;;;;0.30;0.10;;;0.80;99.90;;;;;;5070675;28;20229;-86
2022/01/10 03:39:26;;;;;;;0.30;0.10;;;0.80;99.90;;;;;;5061719;28;20324;-87
2022/01/10 03:41:53;;;;;;;0.30;0.10;;;0.90;99.90;;;;;;5068856;28;20201;-86
2022/01/10 03:44:20;;;;;;;0.30;0.10;;;0.90;99.90;;;;;;5067309;28;20195;-86
2022/01/10 03:46:48;;;;;;;0.30;0.20;;;0.90;99.90;;;;;;5068595;28;20193;-86
2022/01/10 03:49:15;;;;;;;0.30;0.20;;;1.00;99.90;;;;;;5071505;28;20262;-85
2022/01/10 03:51:43;;;;;;;0.30;0.10;;;1.00;99.90;;;;;;5067666;28;20603;-86
2022/01/10 03:54:10;;;;;;;0.30;0.20;;;1.00;99.90;;;;;;5069282;28;20249;-86
2022/01/10 03:56:37;;;;;;;0.30;0.10;;;1.00;99.90;;;;;;5064677;28;20513;-86
2022/01/10 03:59:04;;;;;;;0.30;0.10;;;1.10;99.90;;;;;;5066302;28;20326;-89
2022/01/10 04:01:32;;;;;;;0.30;0.20;;;1.10;99.90;;;;;;5059554;28;20230;-86
2022/01/10 04:04:00;;;;;;;0.30;0.10;;;1.10;99.90;;;;;;5059230;28;20945;-86
2022/01/10 04:06:27;;;;;;;0.30;0.10;;;1.10;99.90;;;;;;5064247;28;20247;-87
2022/01/10 04:08:54;;;;;;;0.30;0.10;;;1.10;99.90;;;;;;5060526;28;20717;-85
2022/01/10 04:11:21;;;;;;;0.40;0.30;;;1.10;99.90;;;;;;5064769;28;20196;-89
2022/01/10 04:13:48;;;;;;;0.45;0.45;;;1.20;99.90;;;;;;5067685;28;20561;-89
2022/01/10 04:16:15;;;;;;;0.30;0.10;;;1.10;99.90;;;;;;5071510;28;20204;-86
2022/01/10 04:18:42;;;;;;;0.30;0.10;;;1.20;99.90;;;;;;5071818;28;20275;-87
2022/01/10 04:21:10;;;;;;;1.87;1.13;;;1.20;99.90;;;;;;5071142;28;20201;-86
2022/01/10 04:23:37;;;;;;;0.30;0.10;;;1.20;99.90;;;;;;5066481;28;20472;-86
2022/01/10 04:26:04;;;;;;;0.30;0.10;;;1.20;99.90;;;;;;5066407;28;20900;-89
2022/01/10 04:28:31;;;;;;;0.30;0.10;;;1.20;99.90;;;;;;5062874;28;20692;-87
2022/01/10 04:30:58;;;;;;;0.30;0.10;;;1.20;99.90;;;;;;5066678;28;20470;-92
2022/01/10 04:33:29;;;;;;;0.30;0.20;;;1.20;99.90;;;;;;5067285;28;20544;-87
2022/01/10 04:35:57;;;;;;;0.30;0.10;;;1.30;99.90;;;;;;5069754;28;20709;-86
2022/01/10 04:38:26;;;;;;;0.30;0.10;;;1.20;99.90;;;;;;5081306;28;20481;-86
2022/01/10 04:40:53;;;;;;;0.30;0.10;;;1.20;99.90;;;;;;5084863;28;20443;-86
2022/01/10 04:43:20;;;;;;;0.30;0.10;;;1.20;99.90;;;;;;5083952;28;20220;-86
2022/01/10 04:45:47;;;;;;;0.30;0.10;;;1.30;99.90;;;;;;5063887;28;20452;-86
2022/01/10 04:48:17;;;;;;;0.30;0.20;;;1.30;99.90;;;;;;5068398;28;20243;-86
2022/01/10 04:51:10;;;;;;;0.30;0.10;;;1.30;99.90;;;;;;5072066;28;20209;-88
2022/01/10 04:53:39;;;;;;;1.03;0.97;;;1.20;99.90;;;;;;5065743;28;20541;-85
2022/01/10 04:56:06;;;;;;;0.30;0.10;;;1.30;99.90;;;;;;5071021;28;20455;-86
2022/01/10 04:58:35;;;;;;;0.30;0.10;;;1.20;99.90;;;;;;5067503;28;20479;-85
2022/01/10 05:01:03;;;;;;;0.30;0.10;;;1.20;99.90;;;;;;5070919;28;20577;-86
2022/01/10 05:03:31;;;;;;;2.67;0.63;;;1.20;99.90;;;;;;5061544;28;20196;-86
2022/01/10 05:05:58;;;;;;;0.30;0.10;;;1.20;99.90;;;;;;5069645;28;20556;-86
2022/01/10 05:08:26;;;;;;;0.40;0.37;;;1.20;99.90;;;;;;5068164;28;20506;-86
2022/01/10 05:10:54;;;;;;;0.30;0.10;;;1.20;99.90;;;;;;5069355;28;21151;-86
2022/01/10 05:13:23;;;;;;;0.30;0.10;;;1.20;99.90;;;;;;5063412;28;20873;-87
2022/01/10 05:15:50;;;;;;;0.30;0.10;;;1.20;99.90;;;;;;5070850;28;20200;-86
2022/01/10 05:18:19;;;;;;;0.35;0.22;;;1.20;99.90;;;;;;5068720;28;20288;-86
2022/01/10 05:20:46;;;;;;;0.30;0.10;;;1.20;99.90;;;;;;5066008;28;20240;-86
2022/01/10 05:23:13;;;;;;;0.30;0.20;;;1.20;99.90;;;;;;5065577;28;20287;-86
2022/01/10 05:25:41;;;;;;;0.30;0.10;;;1.30;99.90;;;;;;5069496;28;20258;-86
2022/01/10 05:28:11;;;;;;;0.93;0.93;;;1.20;99.90;;;;;;5063332;28;20233;-86
2022/01/10 05:30:40;;;;;;;0.30;0.20;;;1.30;99.90;;;;;;5065720;28;20940;-89
2022/01/10 05:33:08;;;;;;;0.30;0.10;;;1.30;99.90;;;;;;5065920;28;20213;-88
2022/01/10 05:35:36;;;;;;;0.30;0.20;;;1.30;99.90;;;;;;5067990;28;20264;-86
2022/01/10 05:38:03;;;;;;;0.45;0.45;;;1.30;99.90;;;;;;5066637;28;20720;-88
2022/01/10 05:40:30;;;;;;;0.30;0.10;;;1.30;99.90;;;;;;5064575;28;20257;-89
2022/01/10 05:42:58;;;;;;;0.30;0.20;;;1.30;99.90;;;;;;5069583;28;20951;-87
2022/01/10 05:45:26;;;;;;;0.30;0.10;;;1.30;99.90;;;;;;5060258;28;20255;-86
2022/01/10 05:47:53;;;;;;;0.30;0.10;;;1.30;99.90;;;;;;5066233;28;20245;-85
2022/01/10 05:50:32;;;;;;;0.30;0.10;;;1.40;99.90;;;;;;5067074;28;20674;-86
2022/01/10 05:53:00;;;;;;;0.30;0.10;;;1.40;99.90;;;;;;5069359;28;20201;-86
2022/01/10 05:55:27;;;;;;;0.30;0.10;;;1.50;99.90;;;;;;5065921;28;20361;-87
2022/01/10 05:57:55;;;;;;;0.30;0.10;;;1.50;99.90;;;;;;5066986;28;20227;-85
2022/01/10 06:00:22;;;;;;;0.30;0.10;;;1.40;99.90;;;;;;5063424;28;20401;-86
2022/01/10 06:02:51;;;;;;;0.98;0.52;;;1.40;99.90;;;;;;5072424;28;20210;-84
2022/01/10 06:05:18;;;;;;;0.30;0.20;;;1.50;99.90;;;;;;5079062;28;20260;-86
2022/01/10 06:07:46;;;;;;;0.30;0.10;;;1.40;99.90;;;;;;5068526;28;20235;-84
2022/01/10 06:10:13;;;;;;;0.30;0.10;;;1.40;99.90;;;;;;5082421;28;20208;-85
2022/01/10 06:12:40;;;;;;;0.30;0.10;;;1.50;99.90;;;;;;5077298;28;20189;-85
2022/01/10 06:15:07;;;;;;;0.30;0.10;;;1.40;99.90;;;;;;5071425;28;20197;-86
2022/01/10 06:17:34;;;;;;;0.30;0.10;;;1.40;99.90;;;;;;5070139;28;20198;-86
2022/01/10 06:20:05;;;;;;;0.40;0.30;;;1.40;99.90;;;;;;5053684;28;20691;-87
2022/01/10 06:22:32;;;;;;;0.30;0.20;;;1.50;99.90;;;;;;5059997;28;20192;-87
2022/01/10 06:25:00;;;;;;;2.00;0.40;;;1.50;99.90;;;;;;5069198;28;20197;-86
2022/01/10 06:27:27;;;;;;;0.35;0.20;;;1.40;99.90;;;;;;5061969;28;20452;-88
2022/01/10 06:29:54;;;;;;;0.30;0.10;;;1.50;99.90;;;;;;5066936;28;20397;-86
2022/01/10 06:32:21;;;;;;;0.55;0.55;;;1.40;99.90;;;;;;5052026;28;20207;-88
2022/01/10 06:34:48;;;;;;;0.38;0.20;;;1.40;99.90;;;;;;5051052;28;20560;-86
2022/01/10 06:37:17;;;;;;;0.30;0.10;;;1.40;99.90;;;;;;5054779;28;20550;-86
2022/01/10 06:39:44;;;;;;;0.40;0.32;;;1.40;99.90;;;;;;5067104;28;20220;-86
2022/01/10 06:42:11;;;;;;;0.30;0.10;;;1.30;99.90;;;;;;5070807;28;20262;-86
2022/01/10 06:44:39;;;;;;;0.68;0.68;;;1.40;99.90;;;;;;5070268;28;20522;-86
2022/01/10 06:47:06;;;;;;;0.73;0.73;;;1.40;99.90;;;;;;5053568;28;20539;-86
2022/01/10 06:49:33;;;;;;;0.30;0.10;;;1.40;99.90;;;;;;5049307;28;20205;-86
2022/01/10 06:52:00;;;;;;;0.30;0.10;;;1.40;99.90;;;;;;5048475;28;20468;-86
2022/01/10 06:54:29;;;;;;;0.30;0.10;;;1.40;99.90;;;;;;5049814;28;20198;-87
2022/01/10 06:56:58;;;;;;;0.30;0.22;;;1.40;99.90;;;;;;5052484;28;20464;-87
2022/01/10 06:59:25;;;;;;;0.30;0.30;;;1.40;99.90;;;;;;5070554;28;20266;-85
2022/01/10 07:01:53;;;;;;;0.30;0.10;;;1.30;99.90;;;;;;5070059;28;20288;-90
2022/01/10 07:04:20;;;;;;;0.30;0.20;;;1.40;99.90;;;;;;5070132;28;20206;-86
2022/01/10 07:06:47;;;;;;;0.30;0.10;;;1.40;99.90;;;;;;5063722;28;20200;-86
2022/01/10 07:09:14;;;;;;;0.30;0.20;;;1.40;99.90;;;;;;5067377;28;20826;-85
2022/01/10 07:11:43;;;;;;;0.30;0.10;;;1.40;99.90;;;;;;5069529;28;20262;-88
2022/01/10 07:14:11;;;;;;;0.30;0.10;;;1.40;99.90;;;;;;5058315;28;20228;-88
2022/01/10 07:16:38;;;;;;;0.30;0.20;;;1.40;99.90;;;;;;5060731;28;20961;-86
2022/01/10 07:19:06;;;;;;;0.30;0.10;;;1.40;99.90;;;;;;5059044;28;20479;-88
2022/01/10 07:21:33;;;;;;;0.30;0.10;;;1.50;99.90;;;;;;5058851;28;20456;-86
2022/01/10 07:24:00;;;;;;;0.30;0.10;;;1.40;99.90;;;;;;5065346;28;20921;-86
2022/01/10 07:26:28;;;;;;;0.80;0.30;;;1.40;99.90;;;;;;5051471;28;20920;-85
2022/01/10 07:28:57;;;;;;;1.40;0.65;;;1.50;99.90;;;;;;5049580;28;20655;-86
2022/01/10 07:31:24;;;;;;;0.30;0.20;;;1.40;99.90;;;;;;5048499;28;20586;-86
2022/01/10 07:33:51;;;;;;;0.30;0.20;;;1.40;99.90;;;;;;5049083;28;20197;-85
2022/01/10 07:36:18;;;;;;;3.35;1.30;;;1.50;99.90;;;;;;5066102;28;20270;-87
2022/01/10 07:38:45;;;;;;;0.30;0.10;;;1.50;99.90;;;;;;5058377;28;20205;-86
2022/01/10 07:41:13;;;;;;;0.35;0.22;;;1.50;99.90;;;;;;5068924;28;20206;-85
2022/01/10 07:43:40;;;;;;;0.30;0.10;;;1.50;99.90;;;;;;5069285;28;20207;-88
2022/01/10 07:46:08;;;;;;;1.27;1.15;;;1.50;99.90;;;;;;5079962;28;20187;-85
2022/01/10 07:48:38;;;;;;;0.30;0.20;;;1.50;99.90;;;;;;5092666;28;20196;-85
2022/01/10 07:51:08;;;;;;;0.30;0.10;;;1.50;99.90;;;;;;5086462;28;20205;-85
2022/01/10 07:53:36;;;;;;;2.37;2.27;;;1.50;99.90;;;;;;5072711;28;20219;-87
2022/01/10 07:56:04;;;;;;;0.30;0.10;;;1.50;99.90;;;;;;5057476;28;20997;-85
2022/01/10 07:58:31;;;;;;;0.30;0.10;;;1.50;99.90;;;;;;5064468;28;20287;-85
2022/01/10 08:00:58;;;;;;;0.30;0.20;;;1.60;99.90;;;;;;5055542;28;20228;-86
2022/01/10 08:03:26;;;;;;;0.30;0.10;;;1.50;99.90;;;;;;5070864;28;20572;-86
2022/01/10 08:05:53;;;;;;;3.13;0.50;;;1.60;99.90;;;;;;5063846;28;20467;-86
2022/01/10 08:08:20;;;;;;;0.30;0.20;;;1.50;99.90;;;;;;5055369;28;20260;-85
2022/01/10 08:10:47;;;;;;;0.30;0.10;;;1.50;99.90;;;;;;5057195;28;20193;-88
2022/01/10 08:13:14;;;;;;;0.30;0.10;;;1.50;99.90;;;;;;5072510;28;20512;-87
2022/01/10 08:15:41;;;;;;;0.30;0.10;;;1.50;99.90;;;;;;5059414;28;20873;-86
2022/01/10 08:18:09;;;;;;;0.30;0.10;;;1.50;99.90;;;;;;5057372;28;20200;-85
2022/01/10 08:20:38;;;;;;;0.30;0.10;;;1.40;99.90;;;;;;5068487;28;20229;-89
2022/01/10 08:23:05;;;;;;;0.30;0.10;;;1.40;99.90;;;;;;5072100;28;20261;-85
2022/01/10 08:25:32;;;;;;;0.30;0.10;;;1.40;99.90;;;;;;5071849;28;20238;-85
2022/01/10 08:27:59;;;;;;;0.30;0.10;;;1.50;99.90;;;;;;5075900;28;20195;-86
2022/01/10 08:30:26;;;;;;;0.30;0.20;;;1.50;99.90;;;;;;5062055;28;20208;-86
2022/01/10 08:32:53;;;;;;;0.40;0.20;;;1.50;99.90;;;;;;5055009;28;20505;-85
2022/01/10 08:35:20;;;;;;;0.40;0.30;;;1.50;99.90;;;;;;5060315;28;20205;-89
2022/01/10 08:37:49;;;;;;;0.30;0.20;;;1.50;99.90;;;;;;5072618;28;20203;-87
2022/01/10 08:40:16;;;;;;;0.30;0.20;;;1.50;99.90;;;;;;5069932;28;20282;-86
2022/01/10 08:42:43;;;;;;;0.93;0.80;;;1.60;99.90;;;;;;5068334;28;20650;-85
2022/01/10 08:45:11;;;;;;;0.30;0.10;;;1.60;99.90;;;;;;5072645;28;20200;-86
2022/01/10 08:47:39;;;;;;;0.40;0.40;;;1.60;99.90;;;;;;5061810;28;20202;-86
2022/01/10 08:50:08;;;;;;;0.30;0.10;;;1.70;99.90;;;;;;5051594;28;20205;-85
2022/01/10 08:52:35;;;;;;;0.30;0.10;;;1.60;99.90;;;;;;5051704;28;20257;-86
2022/01/10 08:55:04;;;;;;;0.75;0.40;;;1.60;99.90;;;;;;5052047;28;20237;-86
2022/01/10 08:57:31;;;;;;;0.82;0.82;;;1.70;99.90;;;;;;5068338;28;20665;-86
2022/01/10 08:59:58;;;;;;;0.30;0.10;;;1.80;99.90;;;;;;5072083;28;20216;-85
2022/01/10 09:02:25;;;;;;;0.30;0.10;;;1.80;99.90;;;;;;5057902;28;20249;-87
2022/01/10 09:04:53;;;;;;;1.85;1.75;;;1.80;99.90;;;;;;5069938;28;20671;-88
2022/01/10 09:07:20;;;;;;;0.30;0.10;;;1.80;99.90;;;;;;5072673;28;20204;-88
2022/01/10 09:09:47;;;;;;;0.30;0.10;;;1.90;99.90;;;;;;5071107;28;20448;-89
2022/01/10 09:12:16;;;;;;;0.30;0.10;;;1.90;99.90;;;;;;5069274;28;20469;-86
2022/01/10 09:14:43;;;;;;;0.63;0.40;;;1.90;99.90;;;;;;5072208;28;20455;-89
2022/01/10 09:17:10;;;;;;;0.30;0.10;;;1.90;99.90;;;;;;5071639;28;20452;-89
2022/01/10 09:19:37;;;;;;;0.30;0.20;;;1.90;99.90;;;;;;5064687;28;20536;-87
2022/01/10 09:22:05;;;;;;;0.30;0.10;;;1.90;99.90;;;;;;5075111;28;20433;-87
2022/01/10 09:24:32;;;;;;;0.30;0.20;;;2.00;99.90;;;;;;5077699;28;20467;-86
2022/01/10 09:26:58;;;;;;;0.30;0.10;;;2.00;99.90;;;;;;5090736;28;20434;-86
2022/01/10 09:29:27;;;;;;;0.30;0.17;;;2.00;99.90;;;;;;5081782;28;20738;-87
2022/01/10 09:31:54;;;;;;;0.30;0.10;;;2.00;99.90;;;;;;5057160;28;20193;-89
2022/01/10 09:34:21;;;;;;;0.30;0.10;;;2.00;99.90;;;;;;5063518;28;20199;-86
2022/01/10 09:36:48;;;;;;;0.30;0.10;;;2.00;99.90;;;;;;5052460;28;20319;-86
2022/01/10 09:39:15;;;;;;;0.30;0.10;;;2.00;99.90;;;;;;5051204;28;20749;-86
2022/01/10 09:41:42;;;;;;;0.30;0.10;;;2.00;99.90;;;;;;5051389;28;20215;-88
2022/01/10 09:44:10;;;;;;;0.30;0.10;;;2.00;99.90;;;;;;5051703;28;20526;-87
2022/01/10 09:46:38;;;;;;;0.30;0.20;;;2.00;99.90;;;;;;5050729;28;20501;-87
2022/01/10 09:49:06;;;;;;;0.40;0.40;;;2.00;99.90;;;;;;5051268;28;20201;-89
2022/01/10 09:51:34;;;;;;;0.30;0.20;;;2.00;99.90;;;;;;5050928;28;20533;-89
2022/01/10 09:54:03;;;;;;;0.40;0.30;;;2.00;99.90;;;;;;5051182;28;20201;-87
2022/01/10 09:56:31;;;;;;;0.30;0.20;;;2.10;99.90;;;;;;5051482;28;20201;-86
2022/01/10 09:58:59;;;;;;;1.00;0.90;;;2.10;99.90;;;;;;5059678;28;20595;-86
2022/01/10 10:01:27;;;;;;;0.30;0.10;;;2.20;99.90;;;;;;5070387;28;20772;-88
2022/01/10 10:03:59;;;;;;;0.70;0.70;;;2.10;99.90;;;;;;5062931;28;20927;-90
2022/01/10 10:06:27;;;;;;;0.30;0.20;;;2.20;99.90;;;;;;5051201;28;20444;-89
2022/01/10 10:08:57;;;;;;;0.30;0.10;;;2.20;99.90;;;;;;5063447;28;20201;-87
2022/01/10 10:11:23;;;;;;;0.30;0.10;;;2.20;99.90;;;;;;5071709;28;20447;-88
2022/01/10 10:13:54;;;;;;;0.50;0.43;;;2.30;99.90;;;;;;5058743;28;20520;-87
2022/01/10 10:16:22;;;;;;;0.30;0.10;;;2.30;99.90;;;;;;5050354;28;20464;-86
2022/01/10 10:18:50;;;;;;;0.40;0.30;;;2.30;99.90;;;;;;5051254;28;20448;-87
2022/01/10 10:21:20;;;;;;;0.30;0.10;;;2.30;99.90;;;;;;5049847;28;20496;-86
2022/01/10 10:23:50;;;;;;;0.30;0.20;;;2.30;99.90;;;;;;5051267;28;20862;-88
2022/01/10 10:26:20;;;;;;;1.50;1.43;;;2.30;99.90;;;;;;5050516;28;20467;-87
2022/01/10 10:28:48;;;;;;;0.30;0.20;;;2.20;99.90;;;;;;5052189;28;20523;-87
2022/01/10 10:31:24;;;;;;;0.40;0.20;;;2.20;99.90;;;;;;5075618;28;20460;-87
2022/01/10 10:33:53;;;;;;;0.30;0.10;;;2.20;99.90;;;;;;5072079;28;20463;-88
2022/01/10 10:36:21;;;;;;;0.30;0.10;;;2.10;99.90;;;;;;5086067;28;20488;-88
2022/01/10 10:38:48;;;;;;;0.30;0.20;;;2.10;99.90;;;;;;5086727;28;20501;-86
2022/01/10 10:41:15;;;;;;;0.30;0.20;;;2.10;99.90;;;;;;5066889;28;20274;-86
2022/01/10 10:43:43;;;;;;;0.30;0.20;;;2.10;99.90;;;;;;5053268;28;20448;-87
2022/01/10 10:46:13;;;;;;;0.30;0.10;;;2.10;99.90;;;;;;5054030;28;20265;-87
2022/01/10 10:48:42;;;;;;;0.30;0.17;;;2.10;99.90;;;;;;5052166;28;20464;-89
2022/01/10 10:51:10;;;;;;;0.30;0.20;;;2.10;99.90;;;;;;5053567;28;20551;-89
2022/01/10 10:53:39;;;;;;;0.30;0.10;;;2.10;99.90;;;;;;5052768;28;20451;-87
2022/01/10 10:56:08;;;;;;;0.30;0.10;;;2.20;99.90;;;;;;5064335;28;20486;-86
2022/01/10 10:58:36;;;;;;;0.67;0.67;;;2.20;99.90;;;;;;5074245;28;20428;-85
2022/01/10 11:01:05;;;;;;;0.30;0.10;;;2.10;99.90;;;;;;5071789;28;20491;-86
2022/01/10 11:03:32;;;;;;;0.40;0.40;;;2.10;99.90;;;;;;5086834;28;20228;-87
2022/01/10 11:06:03;;;;;;;0.93;0.60;;;2.10;99.90;;;;;;5071923;28;20470;-87
2022/01/10 11:08:32;;;;;;;0.40;0.40;;;2.10;99.90;;;;;;5077773;28;20436;-86
2022/01/10 11:11:01;;;;;;;2.15;1.10;;;2.00;99.90;;;;;;5064659;28;20476;-85
2022/01/10 11:13:29;;;;;;;0.30;0.10;;;2.00;99.90;;;;;;5058060;28;20210;-86
2022/01/10 11:15:57;;;;;;;0.30;0.10;;;2.00;99.90;;;;;;5051898;28;20468;-88
2022/01/10 11:18:24;;;;;;;0.30;0.20;;;1.90;99.90;;;;;;5049975;28;20443;-87
2022/01/10 11:20:55;;;;;;;0.30;0.10;;;1.90;99.90;;;;;;5050080;28;20559;-89
2022/01/10 11:23:23;;;;;;;0.57;0.57;;;1.80;99.90;;;;;;5050114;28;20201;-87
2022/01/10 11:25:50;;;;;;;0.30;0.28;;;1.80;99.90;;;;;;5050549;28;20196;-89
2022/01/10 11:28:24;;;;;;;0.47;0.30;;;1.80;99.90;;;;;;5049670;28;20231;-89
2022/01/10 11:30:52;;;;;;;0.43;0.43;;;1.70;99.90;;;;;;5049483;28;20229;-88
2022/01/10 11:33:21;;;;;;;1.05;0.82;;;1.70;99.90;;;;;;5064062;28;20258;-88
2022/01/10 11:35:51;;;;;;;0.40;0.40;;;1.70;99.90;;;;;;5071973;28;20259;-88
2022/01/10 11:38:29;;;;;;;0.88;0.82;;;1.70;99.90;;;;;;5062497;28;20633;-87
2022/01/10 11:40:58;;;;;;;0.30;0.10;;;1.70;99.90;;;;;;5053289;28;20225;-88
2022/01/10 11:43:34;;;;;;;0.30;0.10;;;1.60;99.90;;;;;;5052836;28;20206;-88
2022/01/10 11:46:14;;;;;;;0.30;0.30;;;1.50;99.90;;;;;;5068949;28;20214;-86
2022/01/10 11:48:44;;;;;;;0.30;0.10;;;1.50;99.90;;;;;;5064002;28;20457;-87
2022/01/10 11:51:16;;;;;;;0.30;0.10;;;1.50;99.90;;;;;;5053391;28;20554;-86
2022/01/10 11:53:46;;;;;;;0.30;0.20;;;1.50;99.90;;;;;;5052574;28;20450;-87
2022/01/10 11:56:28;;;;;;;0.30;0.10;;;1.50;99.90;;;;;;5056779;28;20459;-86
2022/01/10 11:59:13;;;;;;;0.75;0.75;;;1.40;99.90;;;;;;5072895;28;20274;-86
2022/01/10 12:01:42;;;;;;;0.30;0.17;;;1.40;99.90;;;;;;5070454;28;20235;-87
2022/01/10 12:04:09;;;;;;;0.30;0.17;;;1.40;99.90;;;;;;5066364;28;20842;-90
2022/01/10 12:06:37;;;;;;;0.60;0.60;;;1.40;99.90;;;;;;5071734;28;20212;-87
2022/01/10 12:09:04;;;;;;;0.30;0.10;;;1.40;99.90;;;;;;5073208;28;20871;-88
2022/01/10 12:11:32;;;;;;;0.30;0.10;;;1.40;99.90;;;;;;5064423;28;20444;-88
2022/01/10 12:14:00;;;;;;;0.30;0.10;;;1.30;99.90;;;;;;5055562;28;20916;-87
2022/01/10 12:16:29;;;;;;;0.30;0.10;;;1.30;99.90;;;;;;5053125;28;20284;-88
2022/01/10 12:18:57;;;;;;;0.30;0.10;;;1.20;99.90;;;;;;5056822;28;20255;-88
2022/01/10 12:21:24;;;;;;;0.40;0.32;;;1.20;99.90;;;;;;5052951;28;20230;-90
2022/01/10 12:23:53;;;;;;;0.30;0.20;;;1.20;99.90;;;;;;5054477;28;20248;-86
2022/01/10 12:26:22;;;;;;;0.30;0.10;;;1.10;99.90;;;;;;5060095;28;20238;-86
2022/01/10 12:28:52;;;;;;;0.30;0.10;;;1.10;99.90;;;;;;5060847;28;20226;-87
2022/01/10 12:31:20;;;;;;;0.35;0.20;;;1.00;99.90;;;;;;5072038;28;20189;-87
2022/01/10 12:33:50;;;;;;;0.65;0.65;;;1.10;99.90;;;;;;5068157;28;20193;-87
2022/01/10 12:36:17;;;;;;;0.30;0.10;;;1.00;99.90;;;;;;5086571;28;20296;-86
2022/01/10 12:38:44;;;;;;;0.30;0.10;;;1.00;99.90;;;;;;5080946;28;20191;-89
2022/01/10 12:41:11;;;;;;;0.30;0.20;;;1.00;99.90;;;;;;5064030;28;20229;-88
2022/01/10 12:43:38;;;;;;;0.30;0.10;;;1.00;99.90;;;;;;5053502;28;20746;-85
2022/01/10 12:46:06;;;;;;;0.30;0.10;;;1.00;99.90;;;;;;5052534;28;20201;-87
2022/01/10 12:48:33;;;;;;;0.30;0.20;;;1.00;99.90;;;;;;5056034;28;20251;-86
2022/01/10 12:51:01;;;;;;;0.30;0.10;;;0.90;99.90;;;;;;5054726;28;20279;-86
2022/01/10 12:53:28;;;;;;;1.58;0.45;;;1.00;99.90;;;;;;5053063;28;20262;-87
2022/01/10 12:55:56;;;;;;;0.30;0.20;;;1.00;99.90;;;;;;5052129;28;20267;-87
2022/01/10 12:58:24;;;;;;;13.07;0.82;;;0.90;99.90;;;;;;5052004;28;20455;-86
2022/01/10 13:00:51;;;;;;;0.40;0.40;;;0.90;99.90;;;;;;5059414;28;20273;-85
2022/01/10 13:03:18;;;;;;;0.30;0.10;;;1.00;99.90;;;;;;5072178;28;20206;-86
2022/01/10 13:05:46;;;;;;;0.30;0.20;;;1.00;99.90;;;;;;5066591;28;20236;-88